00:37
Airports
History
Links
Donate
Help keep this website running!
PayPal
Bitcoin
Information on this page is community maintained and may be outdated or inaccurate and is intended for reference only or PC simulator navigating!
Always use approved charts for navigating.
0D4
Camp Vernon
Camp Vernon (0D4)
Westfield, New York, United States (14787)
4
Lat/Lng:42° 21' 22.21" N / 79° 32' 56.17" W
42.356169 / -79.548936
Elevation:655'ft 200mMSL
ID / ICAO:0D4
Runways:1
Longest:(02-20) 901.2m 2,957ft Grass
Distance To
Airport ID:
Nearby VORs <50NM
Nearby NDBs
Nearby WeatherUpdated 03-29-17 23:53 GMT
Nearby weather at KDKK, Chautauqua County/dunkirk located 17.1 nautical miles from 0D4
Altimeter: 30.27
Visibility: 10.0 statute miles
Wind: 5 knots (340°)
Temp: 3°c 37°f
Humidity: 86.7%

METAR: KDKK 292353Z AUTO 34005KT 10SM CLR 03/01 A3027 RMK AO2 SLP258 T00330011 10100 20033 53006

(Powered by phpweather)
Runway 02 / 20
Dimensions:901.2 x 15.2m 2957' x 50'ft
Surface:Grass
Runway 02 [A]Runway 20 [B]
Heading:011°TH 191°TH
Lat:
Lng:
42° 21' 7.91"N
79° 32' 59.93"W
42° 21' 36.5"N
79° 32' 52.41"W
Google Map
Nearby Airports
4 Dart 7.0 NM
D79 SSE 150°
(R) Chautauqua Lake Airpark 7.3 NM
65NY SE 132°
4 Pratts Eastern Divide 15.9 NM
D88 SSW 206°
(U) Chautauqua County/dunkirk 17.1 NM
KDKK (WX) NE 56°
(U) Chautauqua County/jamestown 20.4 NM
KJHW (WX) SE 133°
(R) Fairbank Farms 20.7 NM
NY89 SSE 157°
(R) Ridgeview 22.5 NM
55NY SSE 147°
VFR Chart
Flight Planning at SkyVector.com